Terminal Aerodrome Forecast
Issued by NWS Wichita, KS

Home | Current Version | Previous Version | Text Only | Print | Product List | Glossary On
Versions: 1 2 3 4 5 6 7 8 9 10 11 12 13 14 15 16 17 18 19 20 21 22
000
FTUS43 KICT 242320
TAFICT
TAF
KICT 242320Z 2500/2524 16008KT P6SM VCTS SCT015 BKN030CB
      TEMPO 2500/2503 5SM TSRA OVC010CB
     FM250300 15008KT 6SM BR OVC015
     FM250700 16008KT 3SM BR OVC006
     FM251500 18012KT P6SM SCT006 BKN025
     FM251800 18017G24KT P6SM SCT040=

USA.gov is the U.S. government's official web portal to all federal, state and local government web resources and services.